Home   Weather   Russia   Saint-Petersburg   Past weeks
Flag for Russia

Past Weather in Saint-Petersburg, Russia — Yesterday and Last 2 Weeks

Currently: 77 °F. Passing clouds. (Weather station: St. Petersburg, Russia). See more current weather

Past Weather in Saint-Petersburg — Graph

°F

Saint-Petersburg Temperature Yesterday

Maximum temperature yesterday: 77 °F (at 3:00 pm)
Minimum temperature yesterday: 52 °F (at 5:00 am)
Average temperature yesterday: 66 °F

High & Low Weather Summary for the Past Weeks

 TemperatureHumidityPressure
High77 °F (May 11, 3:00 pm)93% (Apr 28, 7:00 am)30.21 "Hg (Apr 28, 7:00 am)
Low30 °F (Apr 30, 5:00 am)21% (May 11, 4:30 pm)29.27 "Hg (May 6, 4:00 pm)
Average44 °F67%29.80 "Hg
* Reported Apr 27 11:00 am — May 12 11:30 am, Saint-Petersburg. Weather by CustomWeather, © 2021

Note: Actual official high and low records may vary slightly from our data, if they occured in-between our weather recording intervals... More about our weather records

Saint-Petersburg Weather History for the Previous 24 Hours

Scroll right to see more
 ConditionsComfort  
Time TempWeatherWind HumidityBarometerVisibility
11:30 am
Wed, May 12
77 °FPassing clouds.6 mph22%30.18 "HgN/A
11:00 am75 °FPassing clouds.8 mph25%30.18 "HgN/A
10:30 am75 °FPassing clouds.6 mph25%30.18 "HgN/A
10:00 am72 °FPassing clouds.8 mph29%30.18 "HgN/A
9:30 am72 °FPassing clouds.6 mph31%30.18 "HgN/A
9:00 am68 °FPassing clouds.3 mph35%30.18 "HgN/A
8:30 am66 °FPassing clouds.3 mph35%30.18 "HgN/A
8:00 am64 °FPassing clouds.6 mph37%30.21 "HgN/A
7:30 am61 °FPassing clouds.6 mph42%30.18 "HgN/A
7:00 am59 °FPassing clouds.3 mph48%30.18 "HgN/A
6:30 am57 °FPassing clouds.3 mph48%30.18 "HgN/A
6:00 am55 °FPassing clouds.3 mph51%30.18 "HgN/A
5:30 am55 °FPassing clouds.3 mph51%30.18 "HgN/A
5:00 am54 °FSunny.1 mph54%30.18 "Hg10 mi
4:30 am50 °FPassing clouds.3 mph67%30.18 "HgN/A
4:00 am50 °FPassing clouds.3 mph62%30.18 "HgN/A
3:30 am54 °FPassing clouds.3 mph54%30.18 "HgN/A
2:30 am55 °FClear.3 mph51%30.18 "Hg10 mi
2:00 am57 °FClear.3 mph48%30.18 "Hg10 mi
1:30 am57 °FClear.6 mph48%30.15 "Hg10 mi
1:00 am57 °FPassing clouds.3 mph48%30.15 "HgN/A
12:30 am57 °FPassing clouds.3 mph48%30.15 "HgN/A
12:00 am59 °FClear.3 mph45%30.15 "Hg10 mi
11:30 pm
Tue, May 11
61 °FClear.6 mph42%30.15 "Hg10 mi
11:00 pm61 °FClear.6 mph42%30.15 "Hg10 mi
10:30 pm63 °FClear.6 mph39%30.15 "Hg10 mi
10:00 pm64 °FClear.8 mph34%30.15 "Hg10 mi
9:30 pm66 °FClear.6 mph35%30.15 "Hg10 mi
9:00 pm70 °FSunny.10 mph31%30.15 "Hg10 mi
8:30 pm70 °FSunny.8 mph31%30.15 "Hg10 mi
8:00 pm72 °FSunny.10 mph31%30.15 "Hg10 mi
7:30 pm73 °FPassing clouds.8 mph29%30.15 "HgN/A
7:00 pm75 °FSunny.8 mph24%30.15 "Hg10 mi
6:30 pm75 °FSunny.10 mph27%30.15 "Hg10 mi
6:00 pm77 °FSunny.13 mph22%30.15 "Hg10 mi
5:30 pm77 °FPassing clouds.13 mph21%30.15 "HgN/A
5:00 pm77 °FSunny.13 mph22%30.18 "Hg10 mi
4:30 pm77 °FSunny.13 mph21%30.18 "Hg10 mi
4:00 pm77 °FSunny.15 mph22%30.18 "Hg10 mi
3:30 pm75 °FPassing clouds.13 mph22%30.18 "HgN/A
3:00 pm77 °FPassing clouds.15 mph24%30.18 "HgN/A
2:30 pm75 °FSunny.15 mph24%30.18 "Hg10 mi
2:00 pm75 °FSunny.15 mph25%30.18 "Hg10 mi
1:30 pm73 °FSunny.17 mph27%30.21 "Hg10 mi
1:00 pm73 °FSunny.15 mph27%30.21 "Hg10 mi
12:30 pm72 °FPassing clouds.15 mph29%30.21 "HgN/A
12:00 pm72 °FSunny.15 mph31%30.21 "Hg10 mi
Weather by CustomWeather, © 2021

See weather overview